createdAt,value
2023-05-12T00:02:00.420Z,40.40
2023-05-12T00:04:27.996Z,43.35
2023-05-12T00:06:56.034Z,48.53
2023-05-12T00:09:23.467Z,47.38
2023-05-12T00:11:51.016Z,42.10
2023-05-12T00:14:20.539Z,43.47
2023-05-12T00:16:51.814Z,41.35
2023-05-12T00:19:20.293Z,37.90
2023-05-12T00:21:47.995Z,39.67
2023-05-12T00:24:15.513Z,44.60
2023-05-12T00:26:43.025Z,34.28
2023-05-12T00:29:11.051Z,36.60
2023-05-12T00:31:38.606Z,37.92
2023-05-12T00:34:06.381Z,36.67
2023-05-12T00:36:34.029Z,40.28
2023-05-12T00:39:01.533Z,43.90
2023-05-12T00:41:29.115Z,40.10
2023-05-12T00:43:56.707Z,43.78
2023-05-12T00:46:24.879Z,43.45
2023-05-12T00:48:52.950Z,42.55
2023-05-12T00:51:20.886Z,46.50
2023-05-12T00:53:50.700Z,43.70
2023-05-12T00:56:21.906Z,35.85
2023-05-12T00:58:49.467Z,40.20
2023-05-12T01:01:18.418Z,41.03
2023-05-12T01:03:48.397Z,41.17
2023-05-12T01:06:23.128Z,40.50
2023-05-12T01:08:51.319Z,41.58
2023-05-12T01:11:20.003Z,40.75
2023-05-12T01:13:47.657Z,37.47
2023-05-12T01:16:16.674Z,42.72
2023-05-12T01:18:50.030Z,41.17
2023-05-12T01:21:20.403Z,38.88
2023-05-12T01:23:57.153Z,34.95
2023-05-12T01:26:27.547Z,34.60
2023-05-12T01:28:56.016Z,32.72
2023-05-12T01:31:24.989Z,27.38
2023-05-12T01:33:53.627Z,28.55
2023-05-12T01:36:21.559Z,31.05
2023-05-12T01:38:49.128Z,34.42
2023-05-12T01:41:17.089Z,32.47
2023-05-12T01:43:45.174Z,33.90
2023-05-12T01:46:13.903Z,34.50
2023-05-12T01:48:43.724Z,35.63
2023-05-12T01:51:11.374Z,35.72
2023-05-12T01:53:38.992Z,41.40
2023-05-12T01:56:07.136Z,31.45
2023-05-12T01:58:35.765Z,32.58
2023-05-12T02:01:03.704Z,31.15
2023-05-12T02:03:31.395Z,35.42
2023-05-12T02:05:59.350Z,34.25
2023-05-12T02:08:27.166Z,35.63
2023-05-12T02:11:09.043Z,28.90
2023-05-12T02:13:36.990Z,33.67
2023-05-12T02:16:05.499Z,38.67
2023-05-12T02:18:33.488Z,38.63
2023-05-12T02:21:01.192Z,42.28
2023-05-12T02:23:30.333Z,42.92
2023-05-12T02:25:58.407Z,39.53
2023-05-12T02:28:25.831Z,39.03
2023-05-12T02:30:54.384Z,36.92
2023-05-12T02:33:23.195Z,28.13
2023-05-12T02:35:51.517Z,28.80
2023-05-12T02:38:19.051Z,31.05
2023-05-12T02:40:47.781Z,45.72
2023-05-12T02:43:16.350Z,47.58
2023-05-12T02:45:44.504Z,50.78
2023-05-12T02:48:12.125Z,48.08
2023-05-12T02:50:39.666Z,45.72
2023-05-12T02:53:07.257Z,52.50
2023-05-12T02:55:35.264Z,52.63
2023-05-12T02:58:03.164Z,46.95
2023-05-12T03:00:30.767Z,46.88
2023-05-12T03:02:58.460Z,43.28
2023-05-12T03:05:26.112Z,44.78
2023-05-12T03:07:53.662Z,41.20
2023-05-12T03:10:22.401Z,43.95
2023-05-12T03:12:50.065Z,44.58
2023-05-12T03:15:17.702Z,45.97
2023-05-12T03:17:45.536Z,37.72
2023-05-12T03:20:13.412Z,37.85
2023-05-12T03:22:41.222Z,38.63
2023-05-12T03:25:10.560Z,30.23
2023-05-12T03:27:38.636Z,35.38
2023-05-12T03:30:06.984Z,33.30
2023-05-12T03:32:39.250Z,36.37
2023-05-12T03:35:09.946Z,44.05
2023-05-12T03:37:37.490Z,34.78
2023-05-12T03:40:06.542Z,29.65
2023-05-12T03:42:34.062Z,35.65
2023-05-12T03:45:01.607Z,32.15
2023-05-12T03:47:29.728Z,27.88
2023-05-12T03:49:58.768Z,34.22
2023-05-12T03:52:27.086Z,35.50
2023-05-12T03:54:54.979Z,32.25
2023-05-12T03:57:22.500Z,40.03
2023-05-12T03:59:50.054Z,48.70
2023-05-12T04:02:17.709Z,42.63
2023-05-12T04:04:46.894Z,46.92
2023-05-12T04:07:15.964Z,42.60
2023-05-12T04:09:44.129Z,37.95
2023-05-12T04:12:11.708Z,37.45
2023-05-12T04:14:43.196Z,29.10
2023-05-12T04:17:11.209Z,36.85
2023-05-12T04:19:39.296Z,36.28
2023-05-12T04:22:07.042Z,38.38
2023-05-12T04:24:35.057Z,43.05
2023-05-12T04:27:02.977Z,44.33
2023-05-12T04:29:30.799Z,41.35
2023-05-12T04:32:00.047Z,46.92
2023-05-12T04:34:27.847Z,49.35
2023-05-12T04:36:56.200Z,40.33
2023-05-12T04:39:23.813Z,40.75
2023-05-12T04:41:51.742Z,38.60
2023-05-12T04:44:19.801Z,37.15
2023-05-12T04:46:47.904Z,45.88
2023-05-12T04:49:15.737Z,38.47
2023-05-12T04:51:44.580Z,37.63
2023-05-12T04:54:12.250Z,36.88
2023-05-12T04:56:39.929Z,42.20
2023-05-12T04:59:08.468Z,39.72
2023-05-12T05:01:36.159Z,41.42
2023-05-12T05:04:04.079Z,38.70
2023-05-12T05:06:31.721Z,39.58
2023-05-12T05:09:00.845Z,44.55
2023-05-12T05:11:28.338Z,36.08
2023-05-12T05:13:56.011Z,42.25
2023-05-12T05:16:24.358Z,46.88
2023-05-12T05:18:53.263Z,39.25
2023-05-12T05:21:21.345Z,38.05
2023-05-12T05:23:49.280Z,40.80
2023-05-12T05:26:17.046Z,37.10
2023-05-12T05:28:44.599Z,37.13
2023-05-12T05:31:17.360Z,42.90
2023-05-12T05:33:45.117Z,40.60
2023-05-12T05:36:13.897Z,33.75
2023-05-12T05:38:41.539Z,39.70
2023-05-12T05:41:09.704Z,34.38
2023-05-12T05:43:37.586Z,33.70
2023-05-12T05:46:05.439Z,31.88
2023-05-12T05:48:33.646Z,44.20
2023-05-12T05:51:01.166Z,34.30
2023-05-12T05:53:29.153Z,35.60
2023-05-12T05:55:56.790Z,32.88
2023-05-12T05:58:24.488Z,35.83
2023-05-12T06:00:52.154Z,31.02
2023-05-12T06:03:19.823Z,29.20
2023-05-12T06:05:48.367Z,27.33
2023-05-12T06:08:15.968Z,25.27
2023-05-12T06:10:43.729Z,26.45
2023-05-12T06:13:12.003Z,28.70
2023-05-12T06:15:39.634Z,28.10
2023-05-12T06:18:07.307Z,25.38
2023-05-12T06:20:35.023Z,24.63
2023-05-12T06:23:02.706Z,26.67
2023-05-12T06:25:30.567Z,22.40
2023-05-12T06:27:58.175Z,19.20
2023-05-12T06:30:26.945Z,23.40
2023-05-12T06:32:56.164Z,23.25
2023-05-12T06:35:23.753Z,20.90
2023-05-12T06:37:51.534Z,18.08
2023-05-12T06:40:19.205Z,20.25
2023-05-12T06:42:47.767Z,19.13
2023-05-12T06:45:21.501Z,17.02
2023-05-12T06:47:50.339Z,20.15
2023-05-12T06:50:19.549Z,16.52
2023-05-12T06:52:52.358Z,22.05
2023-05-12T06:55:21.267Z,16.92
2023-05-12T06:57:51.663Z,17.13
2023-05-12T07:00:19.849Z,18.15
2023-05-12T07:02:47.555Z,15.93
2023-05-12T07:05:15.134Z,16.85
2023-05-12T07:07:42.889Z,20.92
2023-05-12T07:10:10.974Z,16.15
2023-05-12T07:12:39.317Z,18.30
2023-05-12T07:15:08.468Z,21.35
2023-05-12T07:17:36.164Z,15.73
2023-05-12T07:20:05.549Z,14.27
2023-05-12T07:22:33.074Z,16.30
2023-05-12T07:25:00.738Z,14.38
2023-05-12T07:27:28.279Z,15.07
2023-05-12T07:29:55.984Z,14.73
2023-05-12T07:32:23.586Z,14.32
2023-05-12T07:34:51.427Z,16.02
2023-05-12T07:37:18.950Z,13.82
2023-05-12T07:39:46.662Z,10.70
2023-05-12T07:42:14.228Z,14.02
2023-05-12T07:44:41.893Z,13.20
2023-05-12T07:47:09.613Z,13.88
2023-05-12T07:49:37.254Z,11.25
2023-05-12T07:52:04.972Z,13.57
2023-05-12T07:54:32.634Z,12.82
2023-05-12T07:57:00.630Z,15.00
2023-05-12T07:59:28.278Z,13.00
2023-05-12T08:01:55.885Z,12.00
2023-05-12T08:04:23.545Z,11.82
2023-05-12T08:06:51.084Z,10.98
2023-05-12T08:09:18.595Z,11.23
2023-05-12T08:11:48.112Z,12.40
2023-05-12T08:16:46.527Z,12.43
2023-05-12T08:19:14.228Z,12.02
2023-05-12T08:21:41.847Z,9.40
2023-05-12T08:24:09.508Z,8.45
2023-05-12T08:26:37.071Z,7.55
2023-05-12T08:29:06.094Z,10.20
2023-05-12T08:31:33.667Z,11.02
2023-05-12T08:34:09.788Z,10.00
2023-05-12T08:36:41.841Z,7.95
2023-05-12T08:39:12.453Z,9.90
2023-05-12T08:41:44.761Z,9.07
2023-05-12T08:44:13.257Z,7.93
2023-05-12T08:46:41.869Z,8.95
2023-05-12T08:49:17.201Z,9.75
2023-05-12T08:51:54.476Z,8.35
2023-05-12T08:54:28.191Z,8.52
2023-05-12T08:59:33.367Z,7.03
2023-05-12T09:02:04.494Z,7.32
2023-05-12T09:04:33.148Z,7.45
2023-05-12T09:07:01.058Z,8.98
2023-05-12T09:09:32.717Z,7.82
2023-05-12T09:12:02.911Z,9.07
2023-05-12T09:14:34.817Z,7.55
2023-05-12T09:17:04.798Z,7.40
2023-05-12T09:19:32.698Z,7.82
2023-05-12T09:22:01.239Z,5.78
2023-05-12T09:24:36.896Z,10.65
2023-05-12T09:27:05.010Z,9.20
2023-05-12T09:29:39.542Z,9.20
2023-05-12T09:32:12.844Z,7.55
2023-05-12T09:34:41.568Z,7.47
2023-05-12T09:37:09.908Z,7.55
2023-05-12T09:39:37.515Z,9.80
2023-05-12T09:42:11.019Z,7.90
2023-05-12T09:44:40.043Z,10.40
2023-05-12T09:47:08.290Z,8.52
2023-05-12T09:49:35.826Z,7.35
2023-05-12T09:52:05.004Z,9.95
2023-05-12T09:54:33.777Z,6.68
2023-05-12T09:57:04.882Z,7.63
2023-05-12T10:02:08.814Z,7.68
2023-05-12T10:04:50.848Z,8.32
2023-05-12T10:07:22.991Z,7.55
2023-05-12T10:09:50.807Z,7.05
2023-05-12T10:12:18.699Z,9.00
2023-05-12T10:14:47.700Z,7.72
2023-05-12T10:17:15.779Z,8.27
2023-05-12T10:19:44.574Z,9.77
2023-05-12T10:22:15.896Z,9.20
2023-05-12T10:24:45.709Z,7.70
2023-05-12T10:27:15.941Z,6.93
2023-05-12T10:29:44.292Z,16.53
2023-05-12T10:32:11.980Z,8.88
2023-05-12T10:34:42.002Z,10.20
2023-05-12T10:37:11.500Z,7.00
2023-05-12T10:39:51.087Z,8.43
2023-05-12T10:42:25.667Z,7.47
2023-05-12T10:44:56.373Z,7.30
2023-05-12T10:47:37.149Z,6.47
2023-05-12T10:50:05.568Z,7.32
2023-05-12T10:52:33.448Z,5.22
2023-05-12T10:55:02.389Z,11.07
2023-05-12T10:57:32.334Z,7.53
2023-05-12T11:00:02.460Z,8.20
2023-05-12T11:02:35.391Z,7.40
2023-05-12T11:05:13.011Z,7.90
2023-05-12T11:07:47.319Z,7.70
2023-05-12T11:10:15.450Z,6.03
2023-05-12T11:12:44.857Z,5.45
2023-05-12T11:15:13.243Z,8.93
2023-05-12T11:17:41.079Z,7.03
2023-05-12T11:20:12.276Z,6.10
2023-05-12T11:22:41.271Z,6.13
2023-05-12T11:25:12.646Z,6.85
2023-05-12T11:27:47.775Z,5.20
2023-05-12T11:30:16.153Z,4.53
2023-05-12T11:32:44.255Z,5.50
2023-05-12T11:35:19.858Z,5.45
2023-05-12T11:37:47.684Z,5.88
2023-05-12T11:40:17.229Z,5.93
2023-05-12T11:42:48.936Z,6.68
2023-05-12T11:45:29.935Z,7.35
2023-05-12T11:50:42.295Z,14.48
2023-05-12T11:53:15.698Z,6.78
2023-05-12T11:55:52.883Z,6.50
2023-05-12T11:58:26.878Z,5.80
2023-05-12T12:00:55.843Z,7.70
2023-05-12T12:03:24.799Z,7.95
2023-05-12T12:06:01.111Z,6.25
2023-05-12T12:08:29.164Z,5.85
2023-05-12T12:10:56.682Z,4.93
2023-05-12T12:13:26.367Z,8.55
2023-05-12T12:15:54.028Z,9.55
2023-05-12T12:18:22.282Z,6.35
2023-05-12T12:20:49.890Z,7.80
2023-05-12T12:23:17.414Z,6.45
2023-05-12T12:25:44.977Z,6.53
2023-05-12T12:28:12.992Z,6.95
2023-05-12T12:30:40.622Z,8.50
2023-05-12T12:33:08.286Z,10.60
2023-05-12T12:35:35.957Z,6.63
2023-05-12T12:38:03.509Z,7.55
2023-05-12T12:40:31.264Z,12.63
2023-05-12T12:42:58.791Z,7.95
2023-05-12T12:45:27.201Z,6.38
2023-05-12T12:47:55.031Z,11.82
2023-05-12T12:50:24.462Z,7.40
2023-05-12T12:52:53.565Z,7.88
2023-05-12T12:55:21.907Z,7.03
2023-05-12T12:57:49.511Z,8.85
2023-05-12T13:00:17.414Z,9.88
2023-05-12T13:02:45.091Z,10.40
2023-05-12T13:05:12.973Z,8.95
2023-05-12T13:07:40.899Z,6.65
2023-05-12T13:10:09.577Z,7.80
2023-05-12T13:12:37.187Z,8.15
2023-05-12T13:15:05.780Z,6.78
2023-05-12T13:17:34.188Z,10.10
2023-05-12T13:20:02.153Z,7.97
2023-05-12T13:22:29.889Z,7.15
2023-05-12T13:24:57.485Z,10.57
2023-05-12T13:27:25.104Z,9.55
2023-05-12T13:29:52.819Z,7.85
2023-05-12T13:32:20.890Z,11.10
2023-05-12T13:34:48.561Z,8.02
2023-05-12T13:37:16.571Z,6.40
2023-05-12T13:39:43.975Z,6.13
2023-05-12T13:42:11.626Z,6.00
2023-05-12T13:44:39.219Z,6.80
2023-05-12T13:47:09.548Z,7.53
2023-05-12T13:49:37.343Z,8.10
2023-05-12T13:52:05.224Z,6.40
2023-05-12T13:54:33.009Z,6.82
2023-05-12T13:57:04.350Z,6.40
2023-05-12T13:59:32.290Z,6.15
2023-05-12T14:02:00.409Z,4.78
2023-05-12T14:04:28.292Z,5.75
2023-05-12T14:06:56.249Z,7.78
2023-05-12T14:09:23.772Z,6.50
2023-05-12T14:11:51.312Z,6.60
2023-05-12T14:14:18.871Z,7.30
2023-05-12T14:16:46.536Z,6.55
2023-05-12T14:19:14.193Z,6.63
2023-05-12T14:21:42.042Z,4.88
2023-05-12T14:24:09.870Z,5.70
2023-05-12T14:26:37.473Z,5.97
2023-05-12T14:29:06.024Z,4.20
2023-05-12T14:31:34.960Z,7.53
2023-05-12T14:34:04.227Z,4.68
2023-05-12T14:36:32.221Z,5.45
2023-05-12T14:38:59.712Z,7.50
2023-05-12T14:41:27.245Z,9.02
2023-05-12T14:43:54.944Z,6.35
2023-05-12T14:46:22.625Z,5.88
2023-05-12T14:48:50.316Z,6.72
2023-05-12T14:51:17.929Z,6.80
2023-05-12T14:53:45.457Z,5.22
2023-05-12T14:56:13.084Z,6.50
2023-05-12T14:58:40.691Z,7.13
2023-05-12T15:01:09.455Z,10.65
2023-05-12T15:03:37.371Z,5.47
2023-05-12T15:06:07.881Z,7.45
2023-05-12T15:08:36.060Z,5.72
2023-05-12T15:11:03.694Z,5.15
2023-05-12T15:13:31.706Z,5.55
2023-05-12T15:15:59.753Z,6.38
2023-05-12T15:18:27.186Z,6.38
2023-05-12T15:20:54.729Z,7.15
2023-05-12T15:23:22.628Z,6.00
2023-05-12T15:25:50.277Z,5.97
2023-05-12T15:28:17.920Z,7.53
2023-05-12T15:30:53.705Z,5.88
2023-05-12T15:33:21.258Z,7.50
2023-05-12T15:35:48.766Z,7.63
2023-05-12T15:38:16.328Z,7.60
2023-05-12T15:40:43.934Z,8.48
2023-05-12T15:43:11.446Z,6.68
2023-05-12T15:45:39.449Z,6.25
2023-05-12T15:48:09.359Z,6.70
2023-05-12T15:50:38.055Z,6.93
2023-05-12T15:53:06.965Z,6.55
2023-05-12T15:55:34.604Z,7.55
2023-05-12T15:58:03.516Z,5.35
2023-05-12T16:00:31.217Z,6.82
2023-05-12T16:02:59.709Z,5.78
2023-05-12T16:05:27.904Z,5.75
2023-05-12T16:07:55.648Z,5.72
2023-05-12T16:10:23.484Z,5.38
2023-05-12T16:12:51.003Z,6.88
2023-05-12T16:15:19.100Z,4.30
2023-05-12T16:17:46.872Z,4.97
2023-05-12T16:20:14.999Z,5.95
2023-05-12T16:22:42.664Z,6.30
2023-05-12T16:25:10.418Z,6.80
2023-05-12T16:27:38.898Z,7.05
2023-05-12T16:30:07.536Z,5.55
2023-05-12T16:32:35.174Z,8.45
2023-05-12T16:35:02.715Z,6.47
2023-05-12T16:37:31.047Z,5.75
2023-05-12T16:39:58.808Z,4.88
2023-05-12T16:42:26.437Z,6.25
2023-05-12T16:44:57.050Z,6.00
2023-05-12T16:47:24.749Z,5.18
2023-05-12T16:49:53.517Z,4.88
2023-05-12T16:52:21.269Z,6.85
2023-05-12T16:54:48.847Z,6.07
2023-05-12T16:57:16.407Z,6.88
2023-05-12T16:59:44.358Z,5.72
2023-05-12T17:02:11.817Z,8.02
2023-05-12T17:04:39.458Z,6.72
2023-05-12T17:07:07.008Z,7.22
2023-05-12T17:09:34.600Z,7.75
2023-05-12T17:12:02.819Z,4.75
2023-05-12T17:14:30.792Z,6.90
2023-05-12T17:16:58.384Z,7.13
2023-05-12T17:19:26.561Z,5.57
2023-05-12T17:21:54.179Z,7.63
2023-05-12T17:24:21.922Z,5.32
2023-05-12T17:26:49.737Z,4.95
2023-05-12T17:29:17.738Z,5.55
2023-05-12T17:31:45.322Z,6.82
2023-05-12T17:34:12.849Z,5.88
2023-05-12T17:36:40.421Z,7.03
2023-05-12T17:39:07.937Z,5.00
2023-05-12T17:41:35.641Z,6.88
2023-05-12T17:44:03.348Z,5.47
2023-05-12T17:46:31.228Z,7.22
2023-05-12T17:48:59.016Z,6.15
2023-05-12T17:51:26.830Z,6.13
2023-05-12T17:53:54.327Z,5.95
2023-05-12T17:56:22.424Z,5.47
2023-05-12T17:58:49.944Z,5.93
2023-05-12T18:01:18.743Z,7.15
2023-05-12T18:03:46.904Z,6.13
2023-05-12T18:06:15.647Z,5.93
2023-05-12T18:08:43.381Z,7.30
2023-05-12T18:11:11.270Z,8.05
2023-05-12T18:13:38.739Z,9.25
2023-05-12T18:16:08.960Z,6.00
2023-05-12T18:18:45.211Z,7.05
2023-05-12T18:21:12.755Z,7.30
2023-05-12T18:23:40.374Z,6.70
2023-05-12T18:26:07.927Z,6.65
2023-05-12T18:28:35.452Z,10.15
2023-05-12T18:31:15.071Z,7.30
2023-05-12T18:33:47.892Z,11.07
2023-05-12T18:36:16.560Z,7.45
2023-05-12T18:38:44.700Z,8.05
2023-05-12T18:41:12.393Z,9.15
2023-05-12T18:43:39.958Z,7.63
2023-05-12T18:46:07.450Z,7.07
2023-05-12T18:48:35.348Z,5.32
2023-05-12T18:51:03.230Z,11.27
2023-05-12T18:53:30.804Z,7.05
2023-05-12T18:55:58.401Z,8.48
2023-05-12T18:58:26.351Z,8.00
2023-05-12T19:00:54.207Z,6.75
2023-05-12T19:03:22.400Z,8.63
2023-05-12T19:05:50.083Z,7.70
2023-05-12T19:08:19.940Z,9.77
2023-05-12T19:10:48.415Z,9.50
2023-05-12T19:13:16.001Z,10.18
2023-05-12T19:15:43.595Z,10.45
2023-05-12T19:18:11.528Z,9.48
2023-05-12T19:20:39.166Z,9.68
2023-05-12T19:23:07.094Z,11.23
2023-05-12T19:25:35.403Z,9.68
2023-05-12T19:28:03.126Z,10.60
2023-05-12T19:30:31.030Z,10.75
2023-05-12T19:32:58.635Z,10.50
2023-05-12T19:35:26.332Z,10.10
2023-05-12T19:37:53.826Z,12.80
2023-05-12T19:40:21.460Z,9.30
2023-05-12T19:42:50.347Z,8.93
2023-05-12T19:45:18.151Z,10.73
2023-05-12T19:47:45.763Z,12.02
2023-05-12T19:50:13.795Z,12.60
2023-05-12T19:52:41.707Z,10.73
2023-05-12T19:55:09.500Z,11.07
2023-05-12T19:57:37.691Z,10.75
2023-05-12T20:00:05.992Z,10.77
2023-05-12T20:02:40.835Z,12.18
2023-05-12T20:05:08.959Z,12.18
2023-05-12T20:07:36.582Z,14.75
2023-05-12T20:10:04.588Z,12.82
2023-05-12T20:12:32.213Z,12.18
2023-05-12T20:14:59.775Z,14.10
2023-05-12T20:17:27.315Z,11.40
2023-05-12T20:19:55.256Z,13.00
2023-05-12T20:22:22.764Z,12.38
2023-05-12T20:24:51.325Z,13.52
2023-05-12T20:27:18.886Z,13.32
2023-05-12T20:29:47.002Z,14.40
2023-05-12T20:32:14.611Z,15.40
2023-05-12T20:34:42.282Z,12.38
2023-05-12T20:37:10.080Z,13.23
2023-05-12T20:39:37.594Z,12.77
2023-05-12T20:42:06.048Z,12.52
2023-05-12T20:44:33.586Z,13.02
2023-05-12T20:47:01.772Z,12.20
2023-05-12T20:49:29.389Z,14.25
2023-05-12T20:51:56.924Z,11.07
2023-05-12T20:54:24.684Z,13.07
2023-05-12T20:56:52.456Z,11.77
2023-05-12T20:59:20.087Z,11.20
2023-05-12T21:01:47.681Z,12.07
2023-05-12T21:04:15.368Z,14.48
2023-05-12T21:06:42.906Z,14.43
2023-05-12T21:09:10.520Z,13.27
2023-05-12T21:11:38.169Z,14.68
2023-05-12T21:14:05.762Z,12.60
2023-05-12T21:16:33.409Z,15.43
2023-05-12T21:19:01.175Z,13.75
2023-05-12T21:21:28.711Z,14.63
2023-05-12T21:23:56.256Z,14.95
2023-05-12T21:26:28.442Z,13.63
2023-05-12T21:28:56.246Z,15.43
2023-05-12T21:31:23.802Z,27.90
2023-05-12T21:33:51.327Z,18.05
2023-05-12T21:36:18.905Z,14.25
2023-05-12T21:38:46.487Z,16.30
2023-05-12T21:41:14.096Z,15.68
2023-05-12T21:43:41.645Z,13.70
2023-05-12T21:46:09.216Z,13.57
2023-05-12T21:48:36.887Z,18.00
2023-05-12T21:51:04.589Z,13.48
2023-05-12T21:53:32.248Z,14.27
2023-05-12T21:55:59.929Z,12.73
2023-05-12T21:58:28.263Z,16.88
2023-05-12T22:00:56.416Z,16.10
2023-05-12T22:03:25.323Z,14.43
2023-05-12T22:05:53.059Z,16.35
2023-05-12T22:08:21.300Z,15.68
2023-05-12T22:10:48.847Z,12.80
2023-05-12T22:13:16.391Z,15.13
2023-05-12T22:15:43.943Z,14.40
2023-05-12T22:18:11.453Z,17.30
2023-05-12T22:20:39.097Z,21.30
2023-05-12T22:23:06.760Z,17.13
2023-05-12T22:25:34.313Z,14.95
2023-05-12T22:28:02.002Z,18.00
2023-05-12T22:30:29.949Z,16.23
2023-05-12T22:32:57.468Z,16.98
2023-05-12T22:35:25.410Z,15.50
2023-05-12T22:37:53.459Z,15.98
2023-05-12T22:40:22.235Z,16.88
2023-05-12T22:42:49.947Z,16.00
2023-05-12T22:45:17.760Z,15.88
2023-05-12T22:47:45.515Z,13.15
2023-05-12T22:50:13.337Z,13.48
2023-05-12T22:52:40.920Z,14.05
2023-05-12T22:55:08.829Z,14.00
2023-05-12T22:57:38.585Z,20.00
2023-05-12T23:00:07.204Z,14.35
2023-05-12T23:02:35.151Z,17.90
2023-05-12T23:05:04.095Z,16.60
2023-05-12T23:07:31.685Z,12.88
2023-05-12T23:09:59.221Z,15.63
2023-05-12T23:12:27.163Z,16.85
2023-05-12T23:14:54.774Z,13.75
2023-05-12T23:17:22.330Z,12.63
2023-05-12T23:19:52.207Z,16.55
2023-05-12T23:22:20.084Z,17.27
2023-05-12T23:24:47.700Z,16.23
2023-05-12T23:27:15.470Z,14.18
2023-05-12T23:29:43.080Z,16.00
2023-05-12T23:32:11.386Z,14.70
2023-05-12T23:34:40.403Z,15.95
2023-05-12T23:37:07.963Z,14.02
2023-05-12T23:39:36.020Z,13.85
2023-05-12T23:42:04.003Z,16.42
2023-05-12T23:44:31.619Z,15.80
2023-05-12T23:46:59.586Z,15.30
2023-05-12T23:49:27.438Z,16.73
2023-05-12T23:51:55.038Z,18.30
2023-05-12T23:54:22.552Z,21.90
2023-05-12T23:56:50.184Z,16.23
2023-05-12T23:59:17.934Z,17.75
